PTRO

Details ICAO PTRO (ROR)
Name Babelthuap
Region Federated States of Micronesia, Palau
Timezone Pacific/Palau (UTC+9.0)
Plans Departing 30
Arriving 50
Stats Elevation 176 ft / 54 m (AMSL)
Location 7.367303° 134.544266°
Runways 1
Magnetic Variation 0.143° E
Sunrise 2017-12-10 21:05:17 UTC / 2017-12-11 06:05:17 Local
Sunset 2017-12-11 08:47:27 UTC / 2017-12-11 17:47:27 Local
Advertisement - Login to hide

Runways

ID Width Length Bearing (true) Bearing (mag) Surface Threshold Offset Overrun Length
09 151 ft / 46 m 7,207 ft / 2,197 m 91.33° 91.19° Asphalt 0 ft / 0 m 200 ft / 61 m
27 151 ft / 46 m 7,207 ft / 2,197 m 271.33° 271.19° Asphalt 0 ft / 0 m 200 ft / 61 m

Map

Weather


0- 5 10 15 20 25 30 35+ Temperature / ° C

Clouds and Precipitation
Forecast for 2017-12-11 12:00 UTC. Updated an hour ago

Ground ~20,000 ft ~40,000 ft Winds

METAR

PTRO 110750Z 17006KT 14SM FEW010 SCT016TCU BKN120 OVC300 27/24 A2969 RMK TCU ALQDS

TAF

TAF PTRO 110525Z 1106/1206 22009KT P6SM VCSH SCT016 SCT040 BKN120 TEMPO 1107/1110 5SM SHRA BKN014
Warning: Do not use this data for real-world aviation or navigation. No guarantee of current accuracy is given.